sensor_id;sensor_type;location;lat;lon;timestamp;temperature;humidity
23550;DHT22;11953;49.010;8.608;2022-10-10T00:02:03;11.00;99.90
23550;DHT22;11953;49.010;8.608;2022-10-10T00:04:50;11.00;99.90
23550;DHT22;11953;49.010;8.608;2022-10-10T00:07:37;11.00;99.90
23550;DHT22;11953;49.010;8.608;2022-10-10T00:10:23;11.20;99.90
23550;DHT22;11953;49.010;8.608;2022-10-10T00:13:11;11.00;99.90
23550;DHT22;11953;49.010;8.608;2022-10-10T00:15:58;10.90;99.90
23550;DHT22;11953;49.010;8.608;2022-10-10T00:18:45;10.80;99.90
23550;DHT22;11953;49.010;8.608;2022-10-10T00:21:32;10.80;99.90
23550;DHT22;11953;49.010;8.608;2022-10-10T00:24:18;10.90;99.90
23550;DHT22;11953;49.010;8.608;2022-10-10T00:27:04;11.00;99.90
23550;DHT22;11953;49.010;8.608;2022-10-10T00:29:52;10.90;99.90
23550;DHT22;11953;49.010;8.608;2022-10-10T00:32:39;10.70;99.90
23550;DHT22;11953;49.010;8.608;2022-10-10T00:35:26;10.60;99.90
23550;DHT22;11953;49.010;8.608;2022-10-10T00:38:13;10.70;99.90
23550;DHT22;11953;49.010;8.608;2022-10-10T00:41:00;10.70;99.90
23550;DHT22;11953;49.010;8.608;2022-10-10T00:44:06;10.80;99.90
23550;DHT22;11953;49.010;8.608;2022-10-10T00:46:54;10.80;99.90
23550;DHT22;11953;49.010;8.608;2022-10-10T00:49:42;10.90;99.90
23550;DHT22;11953;49.010;8.608;2022-10-10T00:52:28;10.90;99.90
23550;DHT22;11953;49.010;8.608;2022-10-10T00:55:15;10.90;99.90
23550;DHT22;11953;49.010;8.608;2022-10-10T00:58:04;11.00;99.90
23550;DHT22;11953;49.010;8.608;2022-10-10T01:00:53;11.10;99.90
23550;DHT22;11953;49.010;8.608;2022-10-10T01:03:41;11.10;99.90
23550;DHT22;11953;49.010;8.608;2022-10-10T01:06:28;11.20;99.90
23550;DHT22;11953;49.010;8.608;2022-10-10T01:09:15;11.20;99.90
23550;DHT22;11953;49.010;8.608;2022-10-10T01:12:12;11.20;99.90
23550;DHT22;11953;49.010;8.608;2022-10-10T01:15:09;11.10;99.90
23550;DHT22;11953;49.010;8.608;2022-10-10T01:18:00;11.10;99.90
23550;DHT22;11953;49.010;8.608;2022-10-10T01:21:11;11.10;99.90
23550;DHT22;11953;49.010;8.608;2022-10-10T01:24:32;11.30;99.90
23550;DHT22;11953;49.010;8.608;2022-10-10T01:27:31;11.30;99.90
23550;DHT22;11953;49.010;8.608;2022-10-10T01:30:22;11.40;99.90
23550;DHT22;11953;49.010;8.608;2022-10-10T01:33:13;11.40;99.90
23550;DHT22;11953;49.010;8.608;2022-10-10T01:36:05;11.50;99.90
23550;DHT22;11953;49.010;8.608;2022-10-10T01:38:58;11.40;99.90
23550;DHT22;11953;49.010;8.608;2022-10-10T01:41:50;11.30;99.90
23550;DHT22;11953;49.010;8.608;2022-10-10T01:44:43;11.30;99.90
23550;DHT22;11953;49.010;8.608;2022-10-10T01:47:31;11.30;99.90
23550;DHT22;11953;49.010;8.608;2022-10-10T01:50:20;11.00;99.90
23550;DHT22;11953;49.010;8.608;2022-10-10T01:53:14;10.90;99.90
23550;DHT22;11953;49.010;8.608;2022-10-10T01:56:08;10.80;99.90
23550;DHT22;11953;49.010;8.608;2022-10-10T01:59:13;10.80;99.90
23550;DHT22;11953;49.010;8.608;2022-10-10T02:02:07;10.80;99.90
23550;DHT22;11953;49.010;8.608;2022-10-10T02:05:05;10.90;99.90
23550;DHT22;11953;49.010;8.608;2022-10-10T02:07:55;10.90;99.90
23550;DHT22;11953;49.010;8.608;2022-10-10T02:10:47;11.00;99.90
23550;DHT22;11953;49.010;8.608;2022-10-10T02:13:38;11.10;99.90
23550;DHT22;11953;49.010;8.608;2022-10-10T02:16:28;11.10;99.90
23550;DHT22;11953;49.010;8.608;2022-10-10T02:19:17;11.10;99.90
23550;DHT22;11953;49.010;8.608;2022-10-10T02:22:06;11.00;99.90
23550;DHT22;11953;49.010;8.608;2022-10-10T02:24:53;10.90;99.90
23550;DHT22;11953;49.010;8.608;2022-10-10T02:27:45;11.00;99.90
23550;DHT22;11953;49.010;8.608;2022-10-10T02:30:35;11.00;99.90
23550;DHT22;11953;49.010;8.608;2022-10-10T02:33:27;10.80;99.90
23550;DHT22;11953;49.010;8.608;2022-10-10T02:36:18;10.90;99.90
23550;DHT22;11953;49.010;8.608;2022-10-10T02:39:09;11.00;99.90
23550;DHT22;11953;49.010;8.608;2022-10-10T02:41:57;10.80;99.90
23550;DHT22;11953;49.010;8.608;2022-10-10T02:44:44;10.70;99.90
23550;DHT22;11953;49.010;8.608;2022-10-10T02:47:31;10.60;99.90
23550;DHT22;11953;49.010;8.608;2022-10-10T02:50:18;10.60;99.90
23550;DHT22;11953;49.010;8.608;2022-10-10T02:53:05;10.50;99.90
23550;DHT22;11953;49.010;8.608;2022-10-10T02:55:53;10.50;99.90
23550;DHT22;11953;49.010;8.608;2022-10-10T02:58:39;10.70;99.90
23550;DHT22;11953;49.010;8.608;2022-10-10T03:01:26;10.70;99.90
23550;DHT22;11953;49.010;8.608;2022-10-10T03:04:12;10.60;99.90
23550;DHT22;11953;49.010;8.608;2022-10-10T03:06:59;10.60;99.90
23550;DHT22;11953;49.010;8.608;2022-10-10T03:09:45;10.70;99.90
23550;DHT22;11953;49.010;8.608;2022-10-10T03:12:33;10.70;99.90
23550;DHT22;11953;49.010;8.608;2022-10-10T03:15:20;10.70;99.90
23550;DHT22;11953;49.010;8.608;2022-10-10T03:18:06;10.60;99.90
23550;DHT22;11953;49.010;8.608;2022-10-10T03:20:54;10.50;99.90
23550;DHT22;11953;49.010;8.608;2022-10-10T03:23:41;10.60;99.90
23550;DHT22;11953;49.010;8.608;2022-10-10T03:26:27;10.50;99.90
23550;DHT22;11953;49.010;8.608;2022-10-10T03:29:15;10.20;99.90
23550;DHT22;11953;49.010;8.608;2022-10-10T03:32:02;9.90;99.90
23550;DHT22;11953;49.010;8.608;2022-10-10T03:34:54;9.80;99.90
23550;DHT22;11953;49.010;8.608;2022-10-10T03:37:41;9.70;99.90
23550;DHT22;11953;49.010;8.608;2022-10-10T03:40:27;9.70;99.90
23550;DHT22;11953;49.010;8.608;2022-10-10T03:43:14;9.70;99.90
23550;DHT22;11953;49.010;8.608;2022-10-10T03:46:02;9.70;99.90
23550;DHT22;11953;49.010;8.608;2022-10-10T03:48:49;9.80;99.90
23550;DHT22;11953;49.010;8.608;2022-10-10T03:51:35;10.00;99.90
23550;DHT22;11953;49.010;8.608;2022-10-10T03:54:21;10.20;99.90
23550;DHT22;11953;49.010;8.608;2022-10-10T03:57:08;10.20;99.90
23550;DHT22;11953;49.010;8.608;2022-10-10T03:59:54;10.30;99.90
23550;DHT22;11953;49.010;8.608;2022-10-10T04:02:42;10.30;99.90
23550;DHT22;11953;49.010;8.608;2022-10-10T04:05:29;10.30;99.90
23550;DHT22;11953;49.010;8.608;2022-10-10T04:08:16;10.40;99.90
23550;DHT22;11953;49.010;8.608;2022-10-10T04:11:03;10.60;99.90
23550;DHT22;11953;49.010;8.608;2022-10-10T04:13:49;10.60;99.90
23550;DHT22;11953;49.010;8.608;2022-10-10T04:16:36;10.80;99.90
23550;DHT22;11953;49.010;8.608;2022-10-10T04:19:24;10.70;99.90
23550;DHT22;11953;49.010;8.608;2022-10-10T04:22:10;10.60;99.90
23550;DHT22;11953;49.010;8.608;2022-10-10T04:24:57;10.60;99.90
23550;DHT22;11953;49.010;8.608;2022-10-10T04:27:43;10.60;99.90
23550;DHT22;11953;49.010;8.608;2022-10-10T04:30:32;10.50;99.90
23550;DHT22;11953;49.010;8.608;2022-10-10T04:33:19;10.70;99.90
23550;DHT22;11953;49.010;8.608;2022-10-10T04:36:07;10.60;99.90
23550;DHT22;11953;49.010;8.608;2022-10-10T04:38:53;10.50;99.90
23550;DHT22;11953;49.010;8.608;2022-10-10T04:41:40;10.20;99.90
23550;DHT22;11953;49.010;8.608;2022-10-10T04:44:26;10.30;99.90
23550;DHT22;11953;49.010;8.608;2022-10-10T04:47:13;10.30;99.90
23550;DHT22;11953;49.010;8.608;2022-10-10T04:49:59;10.30;99.90
23550;DHT22;11953;49.010;8.608;2022-10-10T04:52:47;10.40;99.90
23550;DHT22;11953;49.010;8.608;2022-10-10T04:55:34;10.30;99.90
23550;DHT22;11953;49.010;8.608;2022-10-10T04:58:21;10.20;99.90
23550;DHT22;11953;49.010;8.608;2022-10-10T05:01:07;10.30;99.90
23550;DHT22;11953;49.010;8.608;2022-10-10T05:03:54;10.30;99.90
23550;DHT22;11953;49.010;8.608;2022-10-10T05:06:41;10.30;99.90
23550;DHT22;11953;49.010;8.608;2022-10-10T05:09:29;10.40;99.90
23550;DHT22;11953;49.010;8.608;2022-10-10T05:12:17;10.30;99.90
23550;DHT22;11953;49.010;8.608;2022-10-10T05:15:04;10.20;99.90
23550;DHT22;11953;49.010;8.608;2022-10-10T05:17:52;10.00;99.90
23550;DHT22;11953;49.010;8.608;2022-10-10T05:20:39;10.00;99.90
23550;DHT22;11953;49.010;8.608;2022-10-10T05:23:28;10.10;99.90
23550;DHT22;11953;49.010;8.608;2022-10-10T05:26:15;10.10;99.90
23550;DHT22;11953;49.010;8.608;2022-10-10T05:29:04;10.10;99.90
23550;DHT22;11953;49.010;8.608;2022-10-10T05:31:50;10.20;99.90
23550;DHT22;11953;49.010;8.608;2022-10-10T05:34:37;10.20;99.90
23550;DHT22;11953;49.010;8.608;2022-10-10T05:37:23;10.20;99.90
23550;DHT22;11953;49.010;8.608;2022-10-10T05:40:10;10.30;99.90
23550;DHT22;11953;49.010;8.608;2022-10-10T05:42:58;10.50;99.90
23550;DHT22;11953;49.010;8.608;2022-10-10T05:45:44;10.50;99.90
23550;DHT22;11953;49.010;8.608;2022-10-10T05:48:31;10.50;99.90
23550;DHT22;11953;49.010;8.608;2022-10-10T05:51:17;10.60;99.90
23550;DHT22;11953;49.010;8.608;2022-10-10T05:54:04;10.70;99.90
23550;DHT22;11953;49.010;8.608;2022-10-10T05:56:50;10.60;99.90
23550;DHT22;11953;49.010;8.608;2022-10-10T05:59:38;10.60;99.90
23550;DHT22;11953;49.010;8.608;2022-10-10T06:02:24;10.60;99.90
23550;DHT22;11953;49.010;8.608;2022-10-10T06:05:11;10.50;99.90
23550;DHT22;11953;49.010;8.608;2022-10-10T06:07:58;10.50;99.90
23550;DHT22;11953;49.010;8.608;2022-10-10T06:11:00;10.60;99.90
23550;DHT22;11953;49.010;8.608;2022-10-10T06:13:47;10.50;99.90
23550;DHT22;11953;49.010;8.608;2022-10-10T06:16:39;10.30;99.90
23550;DHT22;11953;49.010;8.608;2022-10-10T06:19:29;10.20;99.90
23550;DHT22;11953;49.010;8.608;2022-10-10T06:22:16;10.10;99.90
23550;DHT22;11953;49.010;8.608;2022-10-10T06:25:03;10.10;99.90
23550;DHT22;11953;49.010;8.608;2022-10-10T06:28:08;10.10;99.90
23550;DHT22;11953;49.010;8.608;2022-10-10T06:30:58;10.00;99.90
23550;DHT22;11953;49.010;8.608;2022-10-10T06:33:46;10.00;99.90
23550;DHT22;11953;49.010;8.608;2022-10-10T06:36:33;10.10;99.90
23550;DHT22;11953;49.010;8.608;2022-10-10T06:39:20;10.20;99.90
23550;DHT22;11953;49.010;8.608;2022-10-10T06:42:06;10.30;99.90
23550;DHT22;11953;49.010;8.608;2022-10-10T06:44:53;10.40;99.90
23550;DHT22;11953;49.010;8.608;2022-10-10T06:47:39;10.60;99.90
23550;DHT22;11953;49.010;8.608;2022-10-10T06:50:27;11.00;99.90
23550;DHT22;11953;49.010;8.608;2022-10-10T06:53:14;11.30;99.90
23550;DHT22;11953;49.010;8.608;2022-10-10T06:56:00;11.70;99.90
23550;DHT22;11953;49.010;8.608;2022-10-10T06:58:47;11.60;99.90
23550;DHT22;11953;49.010;8.608;2022-10-10T07:01:34;11.80;99.90
23550;DHT22;11953;49.010;8.608;2022-10-10T07:04:21;12.10;99.90
23550;DHT22;11953;49.010;8.608;2022-10-10T07:07:09;12.40;99.90
23550;DHT22;11953;49.010;8.608;2022-10-10T07:09:56;12.60;99.90
23550;DHT22;11953;49.010;8.608;2022-10-10T07:12:42;12.90;99.90
23550;DHT22;11953;49.010;8.608;2022-10-10T07:15:29;13.30;99.90
23550;DHT22;11953;49.010;8.608;2022-10-10T07:18:17;13.40;99.90
23550;DHT22;11953;49.010;8.608;2022-10-10T07:21:04;13.30;99.90
23550;DHT22;11953;49.010;8.608;2022-10-10T07:23:52;13.30;99.90
23550;DHT22;11953;49.010;8.608;2022-10-10T07:26:38;13.30;99.90
23550;DHT22;11953;49.010;8.608;2022-10-10T07:29:25;13.10;99.90
23550;DHT22;11953;49.010;8.608;2022-10-10T07:32:12;13.00;99.90
23550;DHT22;11953;49.010;8.608;2022-10-10T07:34:58;13.00;99.90
23550;DHT22;11953;49.010;8.608;2022-10-10T07:37:44;13.00;99.90
23550;DHT22;11953;49.010;8.608;2022-10-10T07:40:32;13.10;99.90
23550;DHT22;11953;49.010;8.608;2022-10-10T07:43:19;13.10;99.90
23550;DHT22;11953;49.010;8.608;2022-10-10T07:46:13;13.10;99.90
23550;DHT22;11953;49.010;8.608;2022-10-10T07:49:00;13.00;99.90
23550;DHT22;11953;49.010;8.608;2022-10-10T07:51:46;13.00;99.90
23550;DHT22;11953;49.010;8.608;2022-10-10T07:54:33;12.90;99.90
23550;DHT22;11953;49.010;8.608;2022-10-10T07:57:21;13.10;99.90
23550;DHT22;11953;49.010;8.608;2022-10-10T08:00:09;13.40;99.90
23550;DHT22;11953;49.010;8.608;2022-10-10T08:02:56;13.40;99.90
23550;DHT22;11953;49.010;8.608;2022-10-10T08:05:43;13.40;99.90
23550;DHT22;11953;49.010;8.608;2022-10-10T08:08:31;13.40;99.90
23550;DHT22;11953;49.010;8.608;2022-10-10T08:11:21;13.40;99.90
23550;DHT22;11953;49.010;8.608;2022-10-10T08:14:09;13.70;99.90
23550;DHT22;11953;49.010;8.608;2022-10-10T08:16:56;14.00;99.90
23550;DHT22;11953;49.010;8.608;2022-10-10T08:19:42;14.20;99.90
23550;DHT22;11953;49.010;8.608;2022-10-10T08:22:28;14.50;99.90
23550;DHT22;11953;49.010;8.608;2022-10-10T08:25:15;15.20;99.90
23550;DHT22;11953;49.010;8.608;2022-10-10T08:28:01;16.10;99.90
23550;DHT22;11953;49.010;8.608;2022-10-10T08:30:49;16.40;99.90
23550;DHT22;11953;49.010;8.608;2022-10-10T08:33:36;16.60;99.90
23550;DHT22;11953;49.010;8.608;2022-10-10T08:36:23;16.80;99.90
23550;DHT22;11953;49.010;8.608;2022-10-10T08:39:11;17.70;99.90
23550;DHT22;11953;49.010;8.608;2022-10-10T08:42:00;18.60;99.90
23550;DHT22;11953;49.010;8.608;2022-10-10T08:44:50;19.00;99.90
23550;DHT22;11953;49.010;8.608;2022-10-10T08:47:45;19.40;99.90
23550;DHT22;11953;49.010;8.608;2022-10-10T08:50:35;20.00;99.90
23550;DHT22;11953;49.010;8.608;2022-10-10T08:53:27;20.50;99.90
23550;DHT22;11953;49.010;8.608;2022-10-10T08:56:22;20.80;99.90
23550;DHT22;11953;49.010;8.608;2022-10-10T08:59:14;21.30;99.90
23550;DHT22;11953;49.010;8.608;2022-10-10T09:02:21;21.50;99.90
23550;DHT22;11953;49.010;8.608;2022-10-10T09:05:44;21.60;99.90
23550;DHT22;11953;49.010;8.608;2022-10-10T09:08:44;22.00;99.90
23550;DHT22;11953;49.010;8.608;2022-10-10T09:11:43;22.40;99.90
23550;DHT22;11953;49.010;8.608;2022-10-10T09:14:38;22.30;99.90
23550;DHT22;11953;49.010;8.608;2022-10-10T09:17:35;22.50;99.90
23550;DHT22;11953;49.010;8.608;2022-10-10T09:20:39;22.80;99.90
23550;DHT22;11953;49.010;8.608;2022-10-10T09:23:30;22.60;99.90
23550;DHT22;11953;49.010;8.608;2022-10-10T09:26:21;22.50;99.90
23550;DHT22;11953;49.010;8.608;2022-10-10T09:29:22;22.10;99.90
23550;DHT22;11953;49.010;8.608;2022-10-10T09:32:14;22.30;99.90
23550;DHT22;11953;49.010;8.608;2022-10-10T09:35:13;22.70;99.90
23550;DHT22;11953;49.010;8.608;2022-10-10T09:38:13;22.40;99.90
23550;DHT22;11953;49.010;8.608;2022-10-10T09:41:12;22.70;99.90
23550;DHT22;11953;49.010;8.608;2022-10-10T09:44:03;22.80;99.90
23550;DHT22;11953;49.010;8.608;2022-10-10T09:46:52;23.00;99.90
23550;DHT22;11953;49.010;8.608;2022-10-10T09:49:39;23.20;99.90
23550;DHT22;11953;49.010;8.608;2022-10-10T09:52:28;23.40;99.90
23550;DHT22;11953;49.010;8.608;2022-10-10T09:55:22;23.60;99.90
23550;DHT22;11953;49.010;8.608;2022-10-10T09:58:14;23.80;99.90
23550;DHT22;11953;49.010;8.608;2022-10-10T10:01:11;24.10;99.90
23550;DHT22;11953;49.010;8.608;2022-10-10T10:04:11;24.00;99.90
23550;DHT22;11953;49.010;8.608;2022-10-10T10:07:25;24.00;99.90
23550;DHT22;11953;49.010;8.608;2022-10-10T10:10:20;24.20;99.90
23550;DHT22;11953;49.010;8.608;2022-10-10T10:13:12;24.20;99.90
23550;DHT22;11953;49.010;8.608;2022-10-10T10:16:02;23.60;99.90
23550;DHT22;11953;49.010;8.608;2022-10-10T10:18:49;23.60;99.90
23550;DHT22;11953;49.010;8.608;2022-10-10T10:21:47;24.00;99.90
23550;DHT22;11953;49.010;8.608;2022-10-10T10:24:35;24.10;99.90
23550;DHT22;11953;49.010;8.608;2022-10-10T10:27:24;24.20;99.90
23550;DHT22;11953;49.010;8.608;2022-10-10T10:30:23;24.00;99.90
23550;DHT22;11953;49.010;8.608;2022-10-10T10:33:15;23.90;99.90
23550;DHT22;11953;49.010;8.608;2022-10-10T10:36:11;24.20;99.90
23550;DHT22;11953;49.010;8.608;2022-10-10T10:39:09;24.50;99.90
23550;DHT22;11953;49.010;8.608;2022-10-10T10:42:12;24.40;99.90
23550;DHT22;11953;49.010;8.608;2022-10-10T10:45:08;24.50;99.90
23550;DHT22;11953;49.010;8.608;2022-10-10T10:48:01;24.60;99.90
23550;DHT22;11953;49.010;8.608;2022-10-10T10:50:52;24.50;99.90
23550;DHT22;11953;49.010;8.608;2022-10-10T10:53:45;24.40;99.90
23550;DHT22;11953;49.010;8.608;2022-10-10T10:56:39;24.20;99.90
23550;DHT22;11953;49.010;8.608;2022-10-10T10:59:32;24.10;99.90
23550;DHT22;11953;49.010;8.608;2022-10-10T11:02:56;24.10;99.90
23550;DHT22;11953;49.010;8.608;2022-10-10T11:06:09;24.40;99.90
23550;DHT22;11953;49.010;8.608;2022-10-10T11:09:04;24.50;99.90
23550;DHT22;11953;49.010;8.608;2022-10-10T11:12:14;24.50;99.90
23550;DHT22;11953;49.010;8.608;2022-10-10T11:15:11;24.40;99.90
23550;DHT22;11953;49.010;8.608;2022-10-10T11:18:03;24.60;99.90
23550;DHT22;11953;49.010;8.608;2022-10-10T11:20:53;24.20;99.90
23550;DHT22;11953;49.010;8.608;2022-10-10T11:23:44;24.10;99.90
23550;DHT22;11953;49.010;8.608;2022-10-10T11:26:36;24.00;99.90
23550;DHT22;11953;49.010;8.608;2022-10-10T11:29:27;24.30;99.90
23550;DHT22;11953;49.010;8.608;2022-10-10T11:32:18;24.40;99.90
23550;DHT22;11953;49.010;8.608;2022-10-10T11:35:15;24.70;99.90
23550;DHT22;11953;49.010;8.608;2022-10-10T11:38:09;24.60;99.90
23550;DHT22;11953;49.010;8.608;2022-10-10T11:41:01;24.00;99.90
23550;DHT22;11953;49.010;8.608;2022-10-10T11:43:52;24.10;99.90
23550;DHT22;11953;49.010;8.608;2022-10-10T11:46:42;23.80;99.90
23550;DHT22;11953;49.010;8.608;2022-10-10T11:49:35;23.60;99.90
23550;DHT22;11953;49.010;8.608;2022-10-10T11:52:29;23.40;99.90
23550;DHT22;11953;49.010;8.608;2022-10-10T11:55:22;23.00;99.90
23550;DHT22;11953;49.010;8.608;2022-10-10T11:58:33;22.90;99.90
23550;DHT22;11953;49.010;8.608;2022-10-10T12:01:26;22.80;99.90
23550;DHT22;11953;49.010;8.608;2022-10-10T12:04:13;23.20;99.90
23550;DHT22;11953;49.010;8.608;2022-10-10T12:07:03;23.60;99.90
23550;DHT22;11953;49.010;8.608;2022-10-10T12:09:54;23.80;99.90
23550;DHT22;11953;49.010;8.608;2022-10-10T12:12:45;23.80;99.90
23550;DHT22;11953;49.010;8.608;2022-10-10T12:15:34;24.00;99.90
23550;DHT22;11953;49.010;8.608;2022-10-10T12:18:30;24.00;99.90
23550;DHT22;11953;49.010;8.608;2022-10-10T12:21:24;23.90;99.90
23550;DHT22;11953;49.010;8.608;2022-10-10T12:24:12;24.10;99.90
23550;DHT22;11953;49.010;8.608;2022-10-10T12:27:28;24.10;99.90
23550;DHT22;11953;49.010;8.608;2022-10-10T12:30:26;24.00;99.90
23550;DHT22;11953;49.010;8.608;2022-10-10T12:33:18;23.90;99.90
23550;DHT22;11953;49.010;8.608;2022-10-10T12:39:35;23.60;99.90
23550;DHT22;11953;49.010;8.608;2022-10-10T12:42:28;23.60;99.90
23550;DHT22;11953;49.010;8.608;2022-10-10T12:48:36;23.50;99.90
23550;DHT22;11953;49.010;8.608;2022-10-10T12:51:23;23.40;99.90
23550;DHT22;11953;49.010;8.608;2022-10-10T12:54:21;23.40;99.90
23550;DHT22;11953;49.010;8.608;2022-10-10T12:57:15;23.50;99.90
23550;DHT22;11953;49.010;8.608;2022-10-10T13:00:13;23.60;99.90
23550;DHT22;11953;49.010;8.608;2022-10-10T13:03:02;23.60;99.90
23550;DHT22;11953;49.010;8.608;2022-10-10T13:05:51;23.50;99.90
23550;DHT22;11953;49.010;8.608;2022-10-10T13:08:40;23.30;99.90
23550;DHT22;11953;49.010;8.608;2022-10-10T13:11:27;23.30;99.90
23550;DHT22;11953;49.010;8.608;2022-10-10T13:14:13;23.40;99.90
23550;DHT22;11953;49.010;8.608;2022-10-10T13:17:01;23.30;99.90
23550;DHT22;11953;49.010;8.608;2022-10-10T13:19:47;23.30;99.90
23550;DHT22;11953;49.010;8.608;2022-10-10T13:22:35;23.00;99.90
23550;DHT22;11953;49.010;8.608;2022-10-10T13:25:22;23.00;99.90
23550;DHT22;11953;49.010;8.608;2022-10-10T13:28:15;22.90;99.90
23550;DHT22;11953;49.010;8.608;2022-10-10T13:31:02;22.90;99.90
23550;DHT22;11953;49.010;8.608;2022-10-10T13:33:50;22.90;99.90
23550;DHT22;11953;49.010;8.608;2022-10-10T13:36:42;22.70;99.90
23550;DHT22;11953;49.010;8.608;2022-10-10T13:39:32;22.30;99.90
23550;DHT22;11953;49.010;8.608;2022-10-10T13:42:31;22.10;99.90
23550;DHT22;11953;49.010;8.608;2022-10-10T13:45:31;22.10;99.90
23550;DHT22;11953;49.010;8.608;2022-10-10T13:48:21;22.20;99.90
23550;DHT22;11953;49.010;8.608;2022-10-10T13:51:09;22.30;99.90
23550;DHT22;11953;49.010;8.608;2022-10-10T13:53:56;22.30;99.90
23550;DHT22;11953;49.010;8.608;2022-10-10T13:56:44;22.20;99.90
23550;DHT22;11953;49.010;8.608;2022-10-10T13:59:31;22.30;99.90
23550;DHT22;11953;49.010;8.608;2022-10-10T14:02:19;22.30;99.90
23550;DHT22;11953;49.010;8.608;2022-10-10T14:05:14;22.20;99.90
23550;DHT22;11953;49.010;8.608;2022-10-10T14:08:01;22.20;99.90
23550;DHT22;11953;49.010;8.608;2022-10-10T14:11:00;22.00;99.90
23550;DHT22;11953;49.010;8.608;2022-10-10T14:13:52;22.10;99.90
23550;DHT22;11953;49.010;8.608;2022-10-10T14:16:40;22.20;99.90
23550;DHT22;11953;49.010;8.608;2022-10-10T14:19:26;22.20;99.90
23550;DHT22;11953;49.010;8.608;2022-10-10T14:22:13;22.20;99.90
23550;DHT22;11953;49.010;8.608;2022-10-10T14:24:59;22.20;99.90
23550;DHT22;11953;49.010;8.608;2022-10-10T14:27:46;22.20;99.90
23550;DHT22;11953;49.010;8.608;2022-10-10T14:30:33;22.20;99.90
23550;DHT22;11953;49.010;8.608;2022-10-10T14:33:21;22.20;99.90
23550;DHT22;11953;49.010;8.608;2022-10-10T14:36:10;22.20;99.90
23550;DHT22;11953;49.010;8.608;2022-10-10T14:38:57;22.20;99.90
23550;DHT22;11953;49.010;8.608;2022-10-10T14:41:43;22.10;99.90
23550;DHT22;11953;49.010;8.608;2022-10-10T14:44:30;22.00;99.90
23550;DHT22;11953;49.010;8.608;2022-10-10T14:47:19;22.10;99.90
23550;DHT22;11953;49.010;8.608;2022-10-10T14:50:12;22.10;99.90
23550;DHT22;11953;49.010;8.608;2022-10-10T14:53:02;22.00;99.90
23550;DHT22;11953;49.010;8.608;2022-10-10T14:55:48;22.00;99.90
23550;DHT22;11953;49.010;8.608;2022-10-10T14:58:40;22.00;99.90
23550;DHT22;11953;49.010;8.608;2022-10-10T15:01:27;22.00;99.90
23550;DHT22;11953;49.010;8.608;2022-10-10T15:04:15;21.80;99.90
23550;DHT22;11953;49.010;8.608;2022-10-10T15:07:01;21.80;99.90
23550;DHT22;11953;49.010;8.608;2022-10-10T15:09:58;21.70;99.90
23550;DHT22;11953;49.010;8.608;2022-10-10T15:13:04;21.50;99.90
23550;DHT22;11953;49.010;8.608;2022-10-10T15:15:51;21.50;99.90
23550;DHT22;11953;49.010;8.608;2022-10-10T15:18:37;21.50;99.90
23550;DHT22;11953;49.010;8.608;2022-10-10T15:21:40;21.40;99.90
23550;DHT22;11953;49.010;8.608;2022-10-10T15:24:26;21.30;99.90
23550;DHT22;11953;49.010;8.608;2022-10-10T15:27:13;21.30;99.90
23550;DHT22;11953;49.010;8.608;2022-10-10T15:29:59;21.20;99.90
23550;DHT22;11953;49.010;8.608;2022-10-10T15:32:46;21.20;99.90
23550;DHT22;11953;49.010;8.608;2022-10-10T15:35:33;21.10;99.90
23550;DHT22;11953;49.010;8.608;2022-10-10T15:38:41;21.10;99.90
23550;DHT22;11953;49.010;8.608;2022-10-10T15:41:27;21.00;99.90
23550;DHT22;11953;49.010;8.608;2022-10-10T15:44:15;21.00;99.90
23550;DHT22;11953;49.010;8.608;2022-10-10T15:47:02;20.90;99.90
23550;DHT22;11953;49.010;8.608;2022-10-10T15:49:49;20.90;99.90
23550;DHT22;11953;49.010;8.608;2022-10-10T15:52:36;20.90;99.90
23550;DHT22;11953;49.010;8.608;2022-10-10T15:55:24;20.80;99.90
23550;DHT22;11953;49.010;8.608;2022-10-10T15:58:10;20.80;99.90
23550;DHT22;11953;49.010;8.608;2022-10-10T16:00:57;20.80;99.90
23550;DHT22;11953;49.010;8.608;2022-10-10T16:03:45;20.70;99.90
23550;DHT22;11953;49.010;8.608;2022-10-10T16:06:32;20.70;99.90
23550;DHT22;11953;49.010;8.608;2022-10-10T16:09:19;20.70;99.90
23550;DHT22;11953;49.010;8.608;2022-10-10T16:12:14;20.70;99.90
23550;DHT22;11953;49.010;8.608;2022-10-10T16:15:01;20.70;99.90
23550;DHT22;11953;49.010;8.608;2022-10-10T16:17:51;20.70;99.90
23550;DHT22;11953;49.010;8.608;2022-10-10T16:20:38;20.60;99.90
23550;DHT22;11953;49.010;8.608;2022-10-10T16:23:24;20.60;99.90
23550;DHT22;11953;49.010;8.608;2022-10-10T16:26:13;20.50;99.90
23550;DHT22;11953;49.010;8.608;2022-10-10T16:29:02;20.40;99.90
23550;DHT22;11953;49.010;8.608;2022-10-10T16:31:48;20.30;99.90
23550;DHT22;11953;49.010;8.608;2022-10-10T16:34:35;20.10;99.90
23550;DHT22;11953;49.010;8.608;2022-10-10T16:37:21;19.80;99.90
23550;DHT22;11953;49.010;8.608;2022-10-10T16:40:09;19.40;99.90
23550;DHT22;11953;49.010;8.608;2022-10-10T16:42:55;19.20;99.90
23550;DHT22;11953;49.010;8.608;2022-10-10T16:45:44;19.00;99.90
23550;DHT22;11953;49.010;8.608;2022-10-10T16:48:31;18.80;99.90
23550;DHT22;11953;49.010;8.608;2022-10-10T16:51:20;18.70;99.90
23550;DHT22;11953;49.010;8.608;2022-10-10T16:54:07;18.50;99.90
23550;DHT22;11953;49.010;8.608;2022-10-10T16:56:54;18.40;99.90
23550;DHT22;11953;49.010;8.608;2022-10-10T16:59:40;18.30;99.90
23550;DHT22;11953;49.010;8.608;2022-10-10T17:02:28;18.40;99.90
23550;DHT22;11953;49.010;8.608;2022-10-10T17:05:14;18.50;99.90
23550;DHT22;11953;49.010;8.608;2022-10-10T17:08:01;18.50;99.90
23550;DHT22;11953;49.010;8.608;2022-10-10T17:10:48;18.30;99.90
23550;DHT22;11953;49.010;8.608;2022-10-10T17:13:35;18.30;99.90
23550;DHT22;11953;49.010;8.608;2022-10-10T17:16:24;18.10;99.90
23550;DHT22;11953;49.010;8.608;2022-10-10T17:19:33;17.80;99.90
23550;DHT22;11953;49.010;8.608;2022-10-10T17:22:19;17.70;99.90
23550;DHT22;11953;49.010;8.608;2022-10-10T17:25:07;17.60;99.90
23550;DHT22;11953;49.010;8.608;2022-10-10T17:27:54;17.60;99.90
23550;DHT22;11953;49.010;8.608;2022-10-10T17:30:41;17.50;99.90
23550;DHT22;11953;49.010;8.608;2022-10-10T17:33:30;17.50;99.90
23550;DHT22;11953;49.010;8.608;2022-10-10T17:36:21;17.50;99.90
23550;DHT22;11953;49.010;8.608;2022-10-10T17:39:07;17.40;99.90
23550;DHT22;11953;49.010;8.608;2022-10-10T17:41:54;17.50;99.90
23550;DHT22;11953;49.010;8.608;2022-10-10T17:44:41;17.60;99.90
23550;DHT22;11953;49.010;8.608;2022-10-10T17:47:36;17.60;99.90
23550;DHT22;11953;49.010;8.608;2022-10-10T17:50:23;17.50;99.90
23550;DHT22;11953;49.010;8.608;2022-10-10T17:53:11;17.40;99.90
23550;DHT22;11953;49.010;8.608;2022-10-10T17:55:57;17.20;99.90
23550;DHT22;11953;49.010;8.608;2022-10-10T17:58:45;16.90;99.90
23550;DHT22;11953;49.010;8.608;2022-10-10T18:01:32;16.90;99.90